Time;durP1;ratioP1;P1;durP2;ratioP2;P2;SDS_P1;SDS_P2;PMS_P1;PMS_P2;Temp;Humidity;BMP_temperature;BMP_pressure;BME280_temperature;BME280_humidity;BME280_pressure;Samples;Min_cycle;Max_cycle;Signal;HPM_P1;HPM_P2
2022/02/24 00:00:08;;;;;;;10.32;6.80;;;7.10;99.90;;;;;;4954130;29;20105;-46
2022/02/24 00:02:33;;;;;;;12.68;6.03;;;7.00;99.90;;;;;;4954490;29;20019;-45
2022/02/24 00:04:59;;;;;;;10.07;6.00;;;6.90;99.90;;;;;;4954386;28;20483;-46
2022/02/24 00:07:25;;;;;;;13.70;6.68;;;6.90;99.90;;;;;;4954191;29;20122;-49
2022/02/24 00:09:51;;;;;;;14.32;7.50;;;6.90;99.90;;;;;;4954623;28;20027;-52
2022/02/24 00:12:16;;;;;;;40.13;21.45;;;6.80;99.90;;;;;;4954881;28;20135;-48
2022/02/24 00:14:42;;;;;;;21.40;8.05;;;6.80;99.90;;;;;;4954106;28;20303;-44
2022/02/24 00:17:07;;;;;;;9.18;6.90;;;6.70;99.90;;;;;;4954393;28;20460;-46
2022/02/24 00:19:34;;;;;;;9.68;6.07;;;6.90;99.90;;;;;;4954356;28;20039;-47
2022/02/24 00:22:00;;;;;;;14.05;6.60;;;6.80;99.90;;;;;;4954565;28;20027;-46
2022/02/24 00:24:25;;;;;;;16.65;7.13;;;6.80;99.90;;;;;;4952826;28;20557;-48
2022/02/24 00:26:51;;;;;;;17.08;7.03;;;6.70;99.90;;;;;;4954611;29;20106;-45
2022/02/24 00:29:17;;;;;;;9.85;6.13;;;6.70;99.90;;;;;;4954322;28;20019;-45
2022/02/24 00:31:43;;;;;;;13.95;6.20;;;6.80;99.90;;;;;;4954223;29;20523;-46
2022/02/24 00:34:08;;;;;;;14.10;6.75;;;6.70;99.90;;;;;;4953734;28;20031;-47
2022/02/24 00:36:34;;;;;;;18.80;8.25;;;6.70;99.90;;;;;;4954075;28;20515;-48
2022/02/24 00:38:59;;;;;;;19.20;8.60;;;6.60;99.90;;;;;;4953959;29;20066;-47
2022/02/24 00:41:25;;;;;;;27.13;11.40;;;6.60;99.90;;;;;;4954062;29;20324;-45
2022/02/24 00:43:51;;;;;;;33.20;12.07;;;6.50;99.90;;;;;;4953724;28;20035;-45
2022/02/24 00:46:16;;;;;;;17.00;7.25;;;6.50;99.90;;;;;;4952812;29;20019;-50
2022/02/24 00:48:42;;;;;;;14.02;7.38;;;6.50;99.90;;;;;;4952535;28;20118;-46
2022/02/24 00:51:07;;;;;;;13.05;6.50;;;6.60;99.90;;;;;;4953742;28;20037;-47
2022/02/24 00:53:33;;;;;;;22.85;7.47;;;6.60;99.90;;;;;;4953522;28;20038;-47
2022/02/24 00:55:59;;;;;;;16.75;7.30;;;6.50;99.90;;;;;;4953995;29;20495;-49
2022/02/24 00:58:26;;;;;;;16.55;8.63;;;6.50;99.90;;;;;;4954321;29;20038;-44
2022/02/24 01:00:52;;;;;;;24.88;9.32;;;6.60;99.90;;;;;;4953701;28;20518;-47
2022/02/24 01:03:18;;;;;;;13.00;6.97;;;6.60;99.90;;;;;;4953415;28;20051;-45
2022/02/24 01:05:43;;;;;;;14.13;7.60;;;6.60;99.90;;;;;;4953740;28;20023;-45
2022/02/24 01:08:09;;;;;;;14.20;8.80;;;6.70;99.90;;;;;;4953455;29;20043;-46
2022/02/24 01:10:34;;;;;;;20.15;9.00;;;6.70;99.90;;;;;;4953587;29;20078;-44
2022/02/24 01:13:00;;;;;;;19.83;10.20;;;6.70;99.90;;;;;;4953399;29;20114;-46
2022/02/24 01:15:25;;;;;;;12.68;7.20;;;6.70;99.90;;;;;;4953512;28;20406;-47
2022/02/24 01:17:51;;;;;;;10.15;6.82;;;6.70;99.90;;;;;;4953971;28;20535;-46
2022/02/24 01:20:16;;;;;;;13.13;7.45;;;6.70;99.90;;;;;;4953138;29;20411;-49
2022/02/24 01:22:42;;;;;;;10.30;7.47;;;6.70;99.90;;;;;;4953512;29;20023;-46
2022/02/24 01:25:08;;;;;;;16.60;8.25;;;6.50;99.90;;;;;;4953291;28;20027;-50
2022/02/24 01:27:33;;;;;;;14.05;7.53;;;6.60;99.90;;;;;;4953564;29;20030;-45
2022/02/24 01:29:59;;;;;;;12.63;8.05;;;6.50;99.90;;;;;;4952414;29;20027;-49
2022/02/24 01:32:25;;;;;;;15.25;8.00;;;6.50;99.90;;;;;;4953431;28;20030;-46
2022/02/24 01:34:58;;;;;;;17.02;8.60;;;6.40;99.90;;;;;;4951725;28;20031;-46
2022/02/24 01:37:24;;;;;;;15.73;10.00;;;6.40;99.90;;;;;;4953335;28;20475;-45
2022/02/24 01:39:49;;;;;;;13.77;8.13;;;6.30;99.90;;;;;;4953376;28;20094;-48
2022/02/24 01:42:15;;;;;;;13.18;7.97;;;6.30;99.90;;;;;;4953200;28;20479;-47
2022/02/24 01:44:44;;;;;;;14.57;8.32;;;6.30;99.90;;;;;;4952938;28;20475;-44
2022/02/24 01:47:10;;;;;;;24.17;9.63;;;6.30;99.90;;;;;;4953525;28;20107;-45
2022/02/24 01:49:36;;;;;;;11.52;8.45;;;6.40;99.90;;;;;;4953272;29;20047;-47
2022/02/24 01:52:05;;;;;;;14.13;8.00;;;6.50;99.90;;;;;;4953255;28;20393;-46
2022/02/24 01:54:33;;;;;;;13.48;8.20;;;6.50;99.90;;;;;;4952962;28;20459;-47
2022/02/24 01:56:59;;;;;;;13.90;8.38;;;6.50;99.90;;;;;;4953054;28;20063;-45
2022/02/24 01:59:25;;;;;;;15.65;7.90;;;6.60;99.90;;;;;;4953112;28;20027;-50
2022/02/24 02:01:51;;;;;;;12.80;7.25;;;6.70;99.90;;;;;;4953225;28;20027;-46
2022/02/24 02:04:16;;;;;;;15.93;8.30;;;6.70;99.90;;;;;;4952788;28;20055;-49
2022/02/24 02:06:42;;;;;;;18.15;8.10;;;6.80;99.90;;;;;;4953132;29;20019;-47
2022/02/24 02:09:09;;;;;;;15.10;7.40;;;6.90;99.90;;;;;;4952386;29;20507;-45
2022/02/24 02:11:35;;;;;;;22.65;8.38;;;6.90;99.90;;;;;;4952958;28;20028;-45
2022/02/24 02:14:00;;;;;;;14.57;7.80;;;6.90;99.90;;;;;;4952753;28;20369;-48
2022/02/24 02:16:26;;;;;;;17.10;7.97;;;6.90;99.90;;;;;;4952870;29;20028;-47
2022/02/24 02:18:51;;;;;;;14.52;7.10;;;7.00;99.90;;;;;;4952815;29;20038;-46
2022/02/24 02:21:17;;;;;;;11.20;7.13;;;7.00;99.90;;;;;;4952743;29;20088;-49
2022/02/24 02:23:42;;;;;;;14.93;6.95;;;7.00;99.90;;;;;;4952600;28;20070;-47
2022/02/24 02:26:08;;;;;;;11.13;6.68;;;7.00;99.90;;;;;;4952926;29;20029;-49
2022/02/24 02:28:34;;;;;;;13.80;6.85;;;7.00;99.90;;;;;;4952852;28;20487;-49
2022/02/24 02:31:00;;;;;;;13.65;6.38;;;7.10;99.90;;;;;;4953093;29;20028;-47
2022/02/24 02:33:26;;;;;;;20.05;6.28;;;7.10;99.90;;;;;;4954477;28;20027;-48
2022/02/24 02:35:51;;;;;;;18.02;6.95;;;7.20;99.90;;;;;;4956288;29;20035;-47
2022/02/24 02:38:17;;;;;;;9.25;6.05;;;7.20;99.90;;;;;;4956135;29;20079;-45
2022/02/24 02:40:42;;;;;;;11.77;6.30;;;7.10;99.90;;;;;;4954864;29;20395;-45
2022/02/24 02:43:09;;;;;;;15.52;6.55;;;7.20;99.90;;;;;;4955978;29;20238;-46
2022/02/24 02:45:36;;;;;;;13.88;6.63;;;7.10;99.90;;;;;;4954893;28;20406;-47
2022/02/24 02:48:02;;;;;;;13.48;6.55;;;7.10;99.90;;;;;;4955114;28;20031;-45
2022/02/24 02:50:28;;;;;;;14.77;6.60;;;7.10;99.90;;;;;;4954434;29;20035;-46
2022/02/24 02:52:54;;;;;;;10.68;6.93;;;7.00;99.90;;;;;;4956228;29;20476;-47
2022/02/24 02:55:20;;;;;;;10.32;6.28;;;7.00;99.90;;;;;;4955878;28;20039;-45
2022/02/24 02:57:47;;;;;;;10.98;6.70;;;7.10;99.90;;;;;;4955311;29;20034;-46
2022/02/24 03:00:14;;;;;;;21.08;6.50;;;7.00;99.90;;;;;;4956589;28;20477;-45
2022/02/24 03:02:40;;;;;;;9.35;6.35;;;7.10;99.90;;;;;;4955871;28;20034;-44
2022/02/24 03:05:06;;;;;;;11.25;7.32;;;7.10;99.90;;;;;;4955905;28;20027;-44
2022/02/24 03:07:32;;;;;;;13.13;6.40;;;7.20;99.90;;;;;;4955651;28;20170;-46
2022/02/24 03:09:58;;;;;;;10.50;6.78;;;7.20;99.90;;;;;;4956417;28;20495;-49
2022/02/24 03:12:23;;;;;;;10.35;6.28;;;7.20;99.90;;;;;;4955745;29;20122;-45
2022/02/24 03:14:49;;;;;;;13.30;7.32;;;7.20;99.90;;;;;;4955189;28;20110;-45
2022/02/24 03:17:14;;;;;;;9.93;6.40;;;7.30;99.90;;;;;;4955469;29;20042;-45
2022/02/24 03:19:40;;;;;;;15.70;6.25;;;7.10;99.90;;;;;;4954285;29;20468;-46
2022/02/24 03:22:11;;;;;;;14.02;6.28;;;7.20;99.90;;;;;;4955387;29;20033;-49
2022/02/24 03:24:37;;;;;;;17.67;6.80;;;7.20;99.90;;;;;;4955478;28;20098;-46
2022/02/24 03:27:03;;;;;;;9.95;6.82;;;7.20;99.90;;;;;;4955298;28;20114;-46
2022/02/24 03:29:29;;;;;;;11.98;6.72;;;7.20;99.90;;;;;;4955413;28;20397;-48
2022/02/24 03:31:54;;;;;;;15.20;7.80;;;7.10;99.90;;;;;;4955313;29;20031;-48
2022/02/24 03:34:20;;;;;;;9.88;6.47;;;7.10;99.90;;;;;;4954690;28;20031;-46
2022/02/24 03:36:46;;;;;;;11.15;6.47;;;7.10;99.90;;;;;;4955193;28;20073;-47
2022/02/24 03:39:11;;;;;;;11.73;7.30;;;7.00;99.90;;;;;;4955384;29;20114;-49
2022/02/24 03:41:37;;;;;;;13.43;7.43;;;7.20;99.90;;;;;;4955058;28;20039;-48
2022/02/24 03:44:03;;;;;;;13.68;7.45;;;7.20;99.90;;;;;;4954365;28;20074;-46
2022/02/24 03:46:28;;;;;;;15.13;8.25;;;7.30;99.90;;;;;;4955214;28;20419;-48
2022/02/24 03:48:54;;;;;;;17.10;8.20;;;7.30;99.90;;;;;;4954808;29;20500;-46
2022/02/24 03:51:19;;;;;;;11.45;7.03;;;7.30;99.90;;;;;;4954843;29;20031;-49
2022/02/24 03:53:45;;;;;;;20.15;7.63;;;7.20;99.90;;;;;;4954515;28;20038;-48
2022/02/24 03:56:10;;;;;;;13.13;7.10;;;7.10;99.90;;;;;;4953609;29;20051;-45
2022/02/24 03:58:36;;;;;;;13.00;8.60;;;7.20;99.90;;;;;;4954729;29;20556;-46
2022/02/24 04:01:03;;;;;;;17.50;8.27;;;7.20;99.90;;;;;;4954666;29;20027;-47
2022/02/24 04:03:28;;;;;;;16.00;8.38;;;7.20;99.90;;;;;;4954132;28;20057;-48
2022/02/24 04:05:54;;;;;;;14.40;8.73;;;7.20;99.90;;;;;;4954902;29;20436;-48
2022/02/24 04:08:20;;;;;;;13.98;7.70;;;7.20;99.90;;;;;;4952848;29;20048;-47
2022/02/24 04:10:45;;;;;;;15.18;8.73;;;7.20;99.90;;;;;;4954685;29;20063;-47
2022/02/24 04:13:11;;;;;;;14.98;8.32;;;7.20;99.90;;;;;;4954111;28;20475;-46
2022/02/24 04:15:37;;;;;;;15.75;7.57;;;7.20;99.90;;;;;;4954361;28;20042;-47
2022/02/24 04:18:03;;;;;;;16.55;8.27;;;7.20;99.90;;;;;;4954296;29;20110;-46
2022/02/24 04:20:29;;;;;;;12.40;7.80;;;7.20;99.90;;;;;;4954358;28;20346;-46
2022/02/24 04:22:54;;;;;;;17.20;8.35;;;7.20;99.90;;;;;;4954244;28;20162;-47
2022/02/24 04:25:20;;;;;;;10.77;7.95;;;7.20;99.90;;;;;;4954268;28;20050;-47
2022/02/24 04:27:47;;;;;;;18.00;8.57;;;7.20;99.90;;;;;;4954350;28;20023;-45
2022/02/24 04:30:13;;;;;;;17.30;8.27;;;7.20;99.90;;;;;;4954069;28;20475;-48
2022/02/24 04:32:40;;;;;;;10.50;8.18;;;7.20;99.90;;;;;;4954173;28;20047;-46
2022/02/24 04:35:06;;;;;;;16.50;8.75;;;7.10;99.90;;;;;;4952754;28;20475;-46
2022/02/24 04:37:31;;;;;;;16.42;7.57;;;7.10;99.90;;;;;;4954264;28;20035;-46
2022/02/24 04:39:57;;;;;;;17.85;8.00;;;7.20;99.90;;;;;;4954083;29;20027;-45
2022/02/24 04:42:22;;;;;;;12.75;8.30;;;7.10;99.90;;;;;;4953879;29;20043;-45
2022/02/24 04:44:48;;;;;;;13.98;8.25;;;7.10;99.90;;;;;;4953654;28;20027;-45
2022/02/24 04:47:13;;;;;;;18.52;8.98;;;7.10;99.90;;;;;;4953891;29;20038;-47
2022/02/24 04:49:39;;;;;;;11.88;8.65;;;7.00;99.90;;;;;;4953825;28;20030;-46
2022/02/24 04:52:05;;;;;;;13.10;8.27;;;7.00;99.90;;;;;;4953869;29;20506;-49
2022/02/24 04:54:30;;;;;;;19.67;8.13;;;7.00;99.90;;;;;;4951917;28;20050;-49
2022/02/24 04:56:56;;;;;;;16.25;7.88;;;7.00;99.90;;;;;;4953278;28;20023;-48
2022/02/24 04:59:21;;;;;;;16.98;8.50;;;6.90;99.90;;;;;;4953829;29;20497;-46
2022/02/24 05:01:47;;;;;;;12.45;8.55;;;6.90;99.90;;;;;;4953710;28;20062;-45
2022/02/24 05:04:13;;;;;;;16.83;8.45;;;6.90;99.90;;;;;;4953240;28;20023;-45
2022/02/24 05:06:38;;;;;;;11.25;7.82;;;7.00;99.90;;;;;;4953795;29;20038;-44
2022/02/24 05:09:04;;;;;;;14.05;7.90;;;7.10;99.90;;;;;;4953059;29;20035;-48
2022/02/24 05:11:29;;;;;;;14.90;8.88;;;7.10;99.90;;;;;;4953452;29;20027;-47
2022/02/24 05:13:55;;;;;;;15.60;8.73;;;7.10;99.90;;;;;;4953307;28;20042;-46
2022/02/24 05:16:20;;;;;;;19.92;8.45;;;7.10;99.90;;;;;;4953649;29;20028;-46
2022/02/24 05:18:46;;;;;;;16.38;7.63;;;7.10;99.90;;;;;;4953392;29;20110;-45
2022/02/24 05:21:11;;;;;;;15.07;8.95;;;7.10;99.90;;;;;;4953649;29;20030;-48
2022/02/24 05:23:37;;;;;;;12.15;8.15;;;7.10;99.90;;;;;;4953464;28;20019;-45
2022/02/24 05:26:03;;;;;;;11.98;8.10;;;7.20;99.90;;;;;;4953961;28;20051;-46
2022/02/24 05:28:29;;;;;;;13.23;8.75;;;7.20;99.90;;;;;;4953610;28;20058;-45
2022/02/24 05:30:59;;;;;;;17.33;8.63;;;7.20;99.90;;;;;;4952183;29;20507;-46
2022/02/24 05:33:28;;;;;;;17.75;8.50;;;7.30;99.90;;;;;;4953397;28;20024;-47
2022/02/24 05:35:54;;;;;;;16.70;8.02;;;7.30;99.90;;;;;;4953435;28;20035;-45
2022/02/24 05:38:20;;;;;;;17.33;9.10;;;7.30;99.90;;;;;;4953227;28;20450;-47
2022/02/24 05:40:45;;;;;;;16.00;8.07;;;7.30;99.90;;;;;;4953157;29;20055;-47
2022/02/24 05:43:11;;;;;;;14.23;8.90;;;7.30;99.90;;;;;;4953067;29;20059;-45
2022/02/24 05:45:36;;;;;;;12.27;8.48;;;7.30;99.90;;;;;;4953117;28;20383;-43
2022/02/24 05:48:02;;;;;;;14.18;8.55;;;7.30;99.90;;;;;;4953385;29;20463;-45
2022/02/24 05:50:28;;;;;;;17.70;8.32;;;7.30;99.90;;;;;;4953153;29;20031;-45
2022/02/24 05:52:53;;;;;;;17.73;9.18;;;7.30;99.90;;;;;;4952904;29;20031;-45
2022/02/24 05:55:19;;;;;;;15.50;9.57;;;7.30;99.90;;;;;;4954211;28;20379;-48
2022/02/24 05:57:45;;;;;;;13.38;8.20;;;7.30;99.90;;;;;;4953254;29;20503;-48
2022/02/24 06:00:12;;;;;;;17.17;8.48;;;7.30;99.90;;;;;;4952986;29;20031;-45
2022/02/24 06:02:38;;;;;;;14.80;7.82;;;7.30;99.90;;;;;;4951641;29;20455;-45
2022/02/24 06:05:04;;;;;;;14.15;9.00;;;7.30;99.90;;;;;;4952671;28;20079;-49
2022/02/24 06:07:29;;;;;;;16.02;8.77;;;7.30;99.90;;;;;;4954816;28;20039;-45
2022/02/24 06:09:55;;;;;;;13.88;8.15;;;7.30;99.90;;;;;;4956911;29;20038;-47
2022/02/24 06:12:20;;;;;;;14.68;8.43;;;7.30;99.90;;;;;;4956545;28;20080;-47
2022/02/24 06:14:46;;;;;;;14.88;7.97;;;7.30;99.90;;;;;;4956637;28;20045;-44
2022/02/24 06:17:12;;;;;;;12.80;8.68;;;7.20;99.90;;;;;;4955417;28;20388;-45
2022/02/24 06:19:39;;;;;;;17.98;7.65;;;7.20;99.90;;;;;;4957311;29;20438;-47
2022/02/24 06:22:05;;;;;;;13.70;7.93;;;7.30;99.90;;;;;;4956215;28;20015;-45
2022/02/24 06:24:30;;;;;;;11.65;7.85;;;7.30;99.90;;;;;;4955981;28;20024;-46
2022/02/24 06:26:56;;;;;;;13.98;7.97;;;7.30;99.90;;;;;;4956413;29;20019;-46
2022/02/24 06:29:22;;;;;;;10.10;7.43;;;7.30;99.90;;;;;;4955035;28;20023;-45
2022/02/24 06:31:47;;;;;;;15.73;8.07;;;7.30;99.90;;;;;;4956026;29;20525;-46
2022/02/24 06:34:13;;;;;;;17.95;8.25;;;7.30;99.90;;;;;;4954581;28;20064;-46
2022/02/24 06:36:38;;;;;;;13.88;8.15;;;7.30;99.90;;;;;;4956156;29;20038;-46
2022/02/24 06:39:03;;;;;;;17.63;8.70;;;7.30;99.90;;;;;;4956064;28;20036;-45
2022/02/24 06:41:29;;;;;;;16.10;9.30;;;7.30;99.90;;;;;;4956092;29;20058;-45
2022/02/24 06:43:55;;;;;;;12.38;8.98;;;7.30;99.90;;;;;;4955792;28;20031;-44
2022/02/24 06:46:21;;;;;;;12.95;8.82;;;7.30;99.90;;;;;;4955997;28;20023;-47
2022/02/24 06:48:47;;;;;;;17.83;9.00;;;7.30;99.90;;;;;;4955862;29;20027;-48
2022/02/24 06:51:12;;;;;;;10.77;8.10;;;7.30;99.90;;;;;;4955804;29;20031;-46
2022/02/24 06:53:38;;;;;;;13.18;8.50;;;7.30;99.90;;;;;;4955492;28;20031;-47
2022/02/24 06:56:04;;;;;;;14.60;9.98;;;7.30;99.90;;;;;;4956051;28;20041;-48
2022/02/24 06:58:30;;;;;;;12.75;7.97;;;7.20;99.90;;;;;;4955896;28;20139;-45
2022/02/24 07:00:55;;;;;;;17.23;8.45;;;7.30;99.90;;;;;;4955734;29;20024;-47
2022/02/24 07:03:21;;;;;;;12.70;9.05;;;7.30;99.90;;;;;;4954160;29;20031;-48
2022/02/24 07:05:46;;;;;;;15.40;9.20;;;7.30;99.90;;;;;;4955630;28;20082;-45
2022/02/24 07:08:12;;;;;;;9.90;7.90;;;7.40;99.90;;;;;;4953923;29;20046;-46
2022/02/24 07:10:37;;;;;;;11.13;8.73;;;7.50;99.90;;;;;;4955671;29;20116;-43
2022/02/24 07:13:03;;;;;;;10.93;8.57;;;7.60;99.90;;;;;;4955560;29;20098;-45
2022/02/24 07:15:28;;;;;;;17.70;8.55;;;7.60;99.90;;;;;;4955435;28;20174;-47
2022/02/24 07:17:54;;;;;;;14.55;7.95;;;7.50;99.90;;;;;;4954804;28;20024;-48
2022/02/24 07:20:20;;;;;;;13.85;8.75;;;7.50;99.90;;;;;;4955282;29;20023;-47
2022/02/24 07:22:45;;;;;;;18.25;9.38;;;7.60;99.90;;;;;;4955271;29;20019;-46
2022/02/24 07:25:12;;;;;;;13.68;9.25;;;7.50;99.90;;;;;;4955242;28;20031;-45
2022/02/24 07:27:38;;;;;;;17.45;8.60;;;7.60;99.90;;;;;;4954138;29;20299;-45
2022/02/24 07:30:05;;;;;;;9.50;7.40;;;7.70;99.90;;;;;;4955191;29;20037;-45
2022/02/24 07:32:31;;;;;;;10.82;8.48;;;7.70;99.90;;;;;;4955267;28;20514;-44
2022/02/24 07:34:57;;;;;;;16.35;8.02;;;7.70;99.90;;;;;;4954874;28;20035;-46
2022/02/24 07:37:23;;;;;;;13.65;7.50;;;7.70;99.90;;;;;;4955160;28;20043;-46
2022/02/24 07:39:48;;;;;;;12.73;7.15;;;7.80;99.90;;;;;;4953901;28;20027;-44
2022/02/24 07:42:17;;;;;;;14.85;7.72;;;7.80;99.90;;;;;;4955168;29;20054;-45
2022/02/24 07:44:45;;;;;;;16.00;8.93;;;8.00;99.90;;;;;;4954508;28;20082;-44
2022/02/24 07:47:14;;;;;;;13.77;8.77;;;8.00;99.90;;;;;;4955029;28;20054;-46
2022/02/24 07:49:41;;;;;;;15.02;8.30;;;8.10;99.90;;;;;;4954949;28;20492;-47
2022/02/24 07:52:07;;;;;;;12.90;7.47;;;8.10;99.90;;;;;;4951877;28;20024;-45
2022/02/24 07:54:33;;;;;;;14.02;7.93;;;8.10;99.90;;;;;;4950416;28;20472;-44
2022/02/24 07:56:59;;;;;;;17.27;8.93;;;8.10;99.90;;;;;;4934634;29;20024;-48
2022/02/24 07:59:24;;;;;;;15.82;7.47;;;8.00;99.90;;;;;;4954535;28;20031;-47
2022/02/24 08:01:50;;;;;;;15.52;8.77;;;8.00;99.90;;;;;;4953661;29;20357;-49
2022/02/24 08:04:16;;;;;;;17.52;9.23;;;8.00;99.90;;;;;;4953995;28;20031;-45
2022/02/24 08:06:42;;;;;;;15.00;8.05;;;8.00;99.90;;;;;;4954439;28;20075;-44
2022/02/24 08:09:08;;;;;;;16.15;8.60;;;8.00;99.90;;;;;;4953638;28;20510;-49
2022/02/24 08:11:34;;;;;;;13.75;8.77;;;8.10;99.90;;;;;;4954650;28;20024;-46
2022/02/24 08:14:00;;;;;;;20.10;9.45;;;8.10;99.90;;;;;;4952959;28;20037;-46
2022/02/24 08:16:26;;;;;;;11.65;8.93;;;8.10;99.90;;;;;;4953344;28;20109;-49
2022/02/24 08:18:52;;;;;;;14.13;8.77;;;8.20;99.90;;;;;;4953639;28;20105;-46
2022/02/24 08:21:17;;;;;;;14.57;8.80;;;8.20;99.90;;;;;;4954353;29;20459;-45
2022/02/24 08:23:44;;;;;;;18.98;8.90;;;8.10;99.90;;;;;;4953531;28;20023;-45
2022/02/24 08:26:10;;;;;;;11.45;8.35;;;8.10;99.90;;;;;;4954298;28;20020;-46
2022/02/24 08:28:36;;;;;;;12.90;7.85;;;8.20;99.90;;;;;;4950908;28;20083;-46
2022/02/24 08:31:02;;;;;;;13.43;8.30;;;8.20;99.90;;;;;;4935026;29;20034;-46
2022/02/24 08:33:27;;;;;;;14.15;8.95;;;8.30;99.90;;;;;;4934534;29;20448;-48
2022/02/24 08:35:53;;;;;;;11.43;8.48;;;8.40;99.90;;;;;;4934943;29;20050;-46
2022/02/24 08:38:19;;;;;;;14.05;9.13;;;8.40;99.90;;;;;;4934999;29;20038;-49
2022/02/24 08:40:45;;;;;;;16.05;8.52;;;8.50;99.90;;;;;;4952058;29;20403;-47
2022/02/24 08:43:10;;;;;;;13.30;8.95;;;8.60;99.90;;;;;;4953697;29;20027;-52
2022/02/24 08:45:36;;;;;;;16.33;11.23;;;8.60;99.90;;;;;;4953767;29;20395;-50
2022/02/24 08:48:03;;;;;;;13.27;9.25;;;8.70;99.90;;;;;;4953896;28;20031;-46
2022/02/24 08:50:29;;;;;;;18.42;9.35;;;8.70;99.90;;;;;;4943927;29;20043;-45
2022/02/24 08:52:55;;;;;;;16.73;10.00;;;8.60;99.90;;;;;;4934324;29;20500;-46
2022/02/24 08:55:21;;;;;;;16.42;9.68;;;8.60;99.90;;;;;;4942162;29;20031;-47
2022/02/24 08:57:46;;;;;;;14.15;9.43;;;8.60;99.90;;;;;;4953048;28;20051;-43
2022/02/24 09:00:14;;;;;;;16.00;9.10;;;8.60;99.90;;;;;;4953457;28;20052;-45
2022/02/24 09:02:39;;;;;;;20.45;10.68;;;8.60;99.90;;;;;;4953497;28;20102;-42
2022/02/24 09:05:05;;;;;;;11.70;8.65;;;8.70;99.90;;;;;;4953512;28;20115;-46
2022/02/24 09:07:31;;;;;;;18.35;9.32;;;8.60;99.90;;;;;;4953623;28;20046;-46
2022/02/24 09:09:56;;;;;;;13.85;9.57;;;8.70;99.90;;;;;;4954759;28;20035;-44
2022/02/24 09:12:22;;;;;;;17.58;9.77;;;8.70;99.90;;;;;;4954458;28;20114;-46
2022/02/24 09:14:47;;;;;;;18.13;11.55;;;8.70;99.90;;;;;;4953604;28;20038;-44
2022/02/24 09:17:13;;;;;;;12.32;8.88;;;8.70;99.90;;;;;;4953467;28;20031;-45
2022/02/24 09:19:43;;;;;;;16.23;10.73;;;8.70;99.90;;;;;;4953476;28;20540;-46
2022/02/24 09:22:09;;;;;;;15.02;9.05;;;8.70;99.90;;;;;;4953347;28;20027;-43
2022/02/24 09:24:34;;;;;;;14.10;10.32;;;8.70;99.90;;;;;;4953088;28;20395;-45
2022/02/24 09:27:00;;;;;;;16.05;9.77;;;8.60;99.90;;;;;;4953344;28;20061;-48
2022/02/24 09:29:28;;;;;;;14.18;9.05;;;8.70;99.90;;;;;;4953523;28;20034;-46
2022/02/24 09:31:54;;;;;;;20.35;10.00;;;8.70;99.90;;;;;;4953485;28;20059;-46
2022/02/24 09:34:20;;;;;;;16.90;9.63;;;8.70;99.90;;;;;;4953424;28;20081;-43
2022/02/24 09:36:47;;;;;;;9.90;8.50;;;8.80;99.90;;;;;;4953309;28;20102;-46
2022/02/24 09:39:13;;;;;;;15.80;8.48;;;8.90;99.90;;;;;;4953353;28;20508;-44
2022/02/24 09:41:39;;;;;;;12.45;8.40;;;9.00;99.90;;;;;;4954254;28;20063;-44
2022/02/24 09:44:05;;;;;;;10.52;8.52;;;9.10;99.90;;;;;;4956863;28;20070;-45
2022/02/24 09:46:33;;;;;;;17.17;9.32;;;9.10;99.90;;;;;;4957149;28;20028;-44
2022/02/24 09:49:02;;;;;;;11.73;8.77;;;9.20;99.90;;;;;;4957194;28;20036;-47
2022/02/24 09:51:27;;;;;;;16.27;9.63;;;9.10;99.90;;;;;;4955581;28;20510;-47
2022/02/24 09:53:53;;;;;;;14.13;9.07;;;9.10;99.90;;;;;;4956539;28;20039;-47
2022/02/24 09:56:28;;;;;;;14.82;9.25;;;9.10;99.90;;;;;;4956427;28;20035;-44
2022/02/24 09:58:55;;;;;;;37.38;7.55;;;9.40;99.90;;;;;;4953744;29;20464;-45
2022/02/24 10:01:21;;;;;;;12.23;7.80;;;9.70;99.90;;;;;;4954712;28;20035;-45
2022/02/24 10:03:53;;;;;;;13.90;8.95;;;9.80;99.90;;;;;;4956584;28;20031;-44
2022/02/24 10:06:35;;;;;;;14.68;8.23;;;9.70;99.90;;;;;;4956757;28;20027;-45
2022/02/24 10:09:01;;;;;;;15.93;7.32;;;9.70;99.90;;;;;;4956444;28;20071;-44
2022/02/24 10:11:28;;;;;;;20.10;8.38;;;9.60;99.90;;;;;;4956745;28;20031;-46
2022/02/24 10:13:57;;;;;;;12.32;8.60;;;9.50;99.90;;;;;;4956440;28;20106;-46
2022/02/24 10:16:23;;;;;;;12.00;7.97;;;9.50;99.90;;;;;;4956651;28;20159;-45
2022/02/24 10:18:49;;;;;;;15.35;8.68;;;9.40;99.90;;;;;;4956607;28;20447;-44
2022/02/24 10:21:18;;;;;;;13.38;8.63;;;9.40;99.90;;;;;;4956378;28;20031;-44
2022/02/24 10:23:44;;;;;;;14.80;8.55;;;9.40;99.90;;;;;;4954894;29;20019;-44
2022/02/24 10:26:12;;;;;;;13.45;7.82;;;9.40;99.90;;;;;;4956402;28;20030;-44
2022/02/24 10:28:51;;;;;;;13.95;8.13;;;9.60;99.90;;;;;;4956367;28;20029;-46
2022/02/24 10:31:21;;;;;;;13.80;7.53;;;9.80;99.90;;;;;;4956213;28;20135;-47
2022/02/24 10:33:49;;;;;;;14.55;7.72;;;9.90;99.90;;;;;;4956088;28;20110;-44
2022/02/24 10:36:23;;;;;;;14.23;7.38;;;10.00;99.90;;;;;;4956388;28;20031;-46
2022/02/24 10:39:05;;;;;;;9.88;6.82;;;10.10;99.90;;;;;;4956072;28;20118;-43
2022/02/24 10:41:42;;;;;;;11.95;8.10;;;10.30;99.90;;;;;;4955459;28;20491;-45
2022/02/24 10:44:20;;;;;;;15.18;7.78;;;10.30;99.90;;;;;;4954552;28;20027;-48
2022/02/24 10:46:50;;;;;;;11.70;7.82;;;10.30;99.90;;;;;;4954241;28;20064;-44
2022/02/24 10:49:36;;;;;;;12.48;7.88;;;10.40;99.90;;;;;;4954115;29;20031;-47
2022/02/24 10:52:19;;;;;;;12.38;7.40;;;10.40;99.90;;;;;;4953515;29;20034;-44
2022/02/24 10:54:59;;;;;;;17.88;7.47;;;10.40;99.90;;;;;;4953438;28;20423;-45
2022/02/24 10:57:26;;;;;;;12.35;7.60;;;10.40;99.90;;;;;;4955462;29;20492;-46
2022/02/24 10:59:53;;;;;;;10.82;6.40;;;10.50;99.90;;;;;;4955828;28;20106;-45
2022/02/24 11:02:20;;;;;;;13.82;7.28;;;10.60;99.90;;;;;;4952406;28;20031;-44
2022/02/24 11:04:46;;;;;;;9.45;6.50;;;10.70;99.90;;;;;;4936265;29;20024;-45
2022/02/24 11:07:11;;;;;;;12.95;6.82;;;10.70;99.90;;;;;;4936689;29;20047;-45
2022/02/24 11:09:41;;;;;;;12.15;7.55;;;10.80;99.90;;;;;;4955153;29;20023;-46
2022/02/24 11:12:09;;;;;;;10.80;6.88;;;10.90;99.90;;;;;;4955511;29;20027;-47
2022/02/24 11:14:36;;;;;;;15.00;6.93;;;11.10;99.90;;;;;;4953993;28;20032;-48
2022/02/24 11:17:08;;;;;;;11.65;6.95;;;11.30;99.90;;;;;;4955177;28;20038;-48
2022/02/24 11:19:36;;;;;;;11.35;6.47;;;11.40;99.90;;;;;;4955010;28;20114;-45
2022/02/24 11:22:03;;;;;;;14.68;7.00;;;11.50;99.90;;;;;;4955267;28;20042;-45
2022/02/24 11:24:29;;;;;;;10.45;5.95;;;11.60;99.90;;;;;;4954824;28;20499;-45
2022/02/24 11:27:27;;;;;;;9.13;6.35;;;11.70;99.90;;;;;;4961404;28;20027;-48
2022/02/24 11:30:03;;;;;;;16.80;5.75;;;11.80;99.90;;;;;;4935083;29;20079;-48
2022/02/24 11:32:29;;;;;;;13.90;5.60;;;11.80;99.90;;;;;;4943348;29;20027;-49
2022/02/24 11:35:15;;;;;;;6.95;5.10;;;11.80;99.90;;;;;;4935705;29;20027;-51
2022/02/24 11:37:47;;;;;;;6.15;5.22;;;11.80;99.90;;;;;;4976830;28;20041;-51
2022/02/24 11:40:25;;;;;;;28.20;16.17;;;11.90;99.90;;;;;;4968620;28;20019;-51
2022/02/24 11:43:05;;;;;;;9.25;4.13;;;11.90;99.90;;;;;;4954368;28;20623;-47
2022/02/24 11:45:39;;;;;;;6.72;3.90;;;12.00;99.90;;;;;;4953511;28;20203;-48
2022/02/24 11:48:19;;;;;;;6.07;3.88;;;12.00;99.90;;;;;;4954563;28;20031;-47
2022/02/24 11:50:57;;;;;;;4.68;3.05;;;12.10;99.90;;;;;;4945088;29;20036;-49
2022/02/24 11:53:26;;;;;;;6.07;3.60;;;12.10;99.90;;;;;;4951078;29;20031;-48
2022/02/24 11:55:57;;;;;;;6.15;3.60;;;12.10;99.90;;;;;;4954551;29;20031;-48
2022/02/24 11:58:42;;;;;;;4.15;3.15;;;12.00;99.90;;;;;;4983200;23;20501;-41
2022/02/24 12:01:11;;;;;;;5.00;3.45;;;12.10;99.90;;;;;;5012450;28;20018;-44
2022/02/24 12:03:46;;;;;;;6.00;3.13;;;12.20;99.90;;;;;;5013925;28;20485;-44
2022/02/24 12:06:15;;;;;;;7.05;3.45;;;12.30;99.90;;;;;;5022719;28;20017;-47
2022/02/24 12:09:13;;;;;;;3.75;3.05;;;12.30;99.90;;;;;;5012159;28;20533;-47
2022/02/24 12:11:46;;;;;;;5.32;2.72;;;12.30;99.90;;;;;;4988443;28;20073;-45
2022/02/24 12:14:21;;;;;;;6.82;3.22;;;12.20;99.90;;;;;;5017981;28;20026;-43
2022/02/24 12:17:05;;;;;;;3.55;2.80;;;12.30;99.90;;;;;;5011554;28;20034;-46
2022/02/24 12:19:39;;;;;;;4.75;3.15;;;12.30;99.90;;;;;;5012531;28;20068;-48
2022/02/24 12:22:34;;;;;;;5.68;3.25;;;12.30;99.90;;;;;;5011242;28;20053;-46
2022/02/24 12:25:16;;;;;;;5.22;3.35;;;12.30;99.90;;;;;;5010231;28;20545;-47
2022/02/24 12:28:08;;;;;;;4.90;3.10;;;12.40;99.90;;;;;;5011179;28;20034;-43
2022/02/24 12:30:44;;;;;;;5.15;2.75;;;12.40;99.90;;;;;;5010302;28;20041;-44
2022/02/24 12:33:11;;;;;;;5.47;2.83;;;12.40;99.90;;;;;;5012321;28;20045;-49
2022/02/24 12:35:40;;;;;;;4.90;2.25;;;12.50;99.90;;;;;;5012586;28;20492;-41
2022/02/24 12:38:07;;;;;;;2.85;1.90;;;12.50;99.90;;;;;;5010985;28;20066;-47
2022/02/24 12:40:38;;;;;;;2.08;1.55;;;12.50;99.90;;;;;;5012176;28;20022;-48
2022/02/24 12:43:07;;;;;;;2.17;1.98;;;12.50;99.90;;;;;;5011787;28;20021;-42
2022/02/24 12:45:34;;;;;;;3.50;1.52;;;12.50;99.90;;;;;;5011044;28;20025;-47